sensor_id;sensor_type;location;lat;lon;timestamp;temperature;humidity
11214;DHT22;5664;48.606;13.456;2024-03-07T00:01:40;17.00;77.60
11214;DHT22;5664;48.606;13.456;2024-03-07T00:04:06;17.00;77.50
11214;DHT22;5664;48.606;13.456;2024-03-07T00:06:31;17.00;76.80
11214;DHT22;5664;48.606;13.456;2024-03-07T00:08:57;16.90;76.70
11214;DHT22;5664;48.606;13.456;2024-03-07T00:11:22;17.00;77.60
11214;DHT22;5664;48.606;13.456;2024-03-07T00:13:48;16.50;77.40
11214;DHT22;5664;48.606;13.456;2024-03-07T00:16:13;17.40;77.70
11214;DHT22;5664;48.606;13.456;2024-03-07T00:18:39;17.20;77.80
11214;DHT22;5664;48.606;13.456;2024-03-07T00:21:04;16.90;77.60
11214;DHT22;5664;48.606;13.456;2024-03-07T00:23:30;16.90;77.60
11214;DHT22;5664;48.606;13.456;2024-03-07T00:25:57;16.90;77.40
11214;DHT22;5664;48.606;13.456;2024-03-07T00:28:22;16.90;77.40
11214;DHT22;5664;48.606;13.456;2024-03-07T00:30:48;17.40;77.80
11214;DHT22;5664;48.606;13.456;2024-03-07T00:33:13;16.80;77.60
11214;DHT22;5664;48.606;13.456;2024-03-07T00:35:39;17.40;77.70
11214;DHT22;5664;48.606;13.456;2024-03-07T00:38:04;16.90;77.50
11214;DHT22;5664;48.606;13.456;2024-03-07T00:40:30;16.80;77.40
11214;DHT22;5664;48.606;13.456;2024-03-07T00:42:56;17.30;77.60
11214;DHT22;5664;48.606;13.456;2024-03-07T00:45:22;16.80;77.30
11214;DHT22;5664;48.606;13.456;2024-03-07T00:47:48;16.80;77.40
11214;DHT22;5664;48.606;13.456;2024-03-07T00:50:13;16.90;77.40
11214;DHT22;5664;48.606;13.456;2024-03-07T00:52:39;16.90;77.50
11214;DHT22;5664;48.606;13.456;2024-03-07T00:55:05;16.80;77.20
11214;DHT22;5664;48.606;13.456;2024-03-07T00:57:33;16.70;77.30
11214;DHT22;5664;48.606;13.456;2024-03-07T00:59:59;16.70;77.30
11214;DHT22;5664;48.606;13.456;2024-03-07T01:02:25;16.70;77.30
11214;DHT22;5664;48.606;13.456;2024-03-07T01:04:51;16.80;77.70
11214;DHT22;5664;48.606;13.456;2024-03-07T01:07:16;16.70;76.60
11214;DHT22;5664;48.606;13.456;2024-03-07T01:09:41;17.00;77.60
11214;DHT22;5664;48.606;13.456;2024-03-07T01:12:07;16.30;77.20
11214;DHT22;5664;48.606;13.456;2024-03-07T01:14:35;16.60;76.60
11214;DHT22;5664;48.606;13.456;2024-03-07T01:17:00;16.60;76.60
11214;DHT22;5664;48.606;13.456;2024-03-07T01:19:26;15.60;76.70
11214;DHT22;5664;48.606;13.456;2024-03-07T01:21:51;16.60;77.40
11214;DHT22;5664;48.606;13.456;2024-03-07T01:24:17;16.80;77.70
11214;DHT22;5664;48.606;13.456;2024-03-07T01:26:43;16.40;77.30
11214;DHT22;5664;48.606;13.456;2024-03-07T01:29:09;16.40;77.20
11214;DHT22;5664;48.606;13.456;2024-03-07T01:31:34;16.50;77.60
11214;DHT22;5664;48.606;13.456;2024-03-07T01:33:59;16.70;77.50
11214;DHT22;5664;48.606;13.456;2024-03-07T01:36:25;16.40;77.30
11214;DHT22;5664;48.606;13.456;2024-03-07T01:38:50;16.80;77.70
11214;DHT22;5664;48.606;13.456;2024-03-07T01:41:16;17.10;77.90
11214;DHT22;5664;48.606;13.456;2024-03-07T01:43:42;16.30;77.30
11214;DHT22;5664;48.606;13.456;2024-03-07T01:46:08;16.40;77.50
11214;DHT22;5664;48.606;13.456;2024-03-07T01:48:34;16.50;77.70
11214;DHT22;5664;48.606;13.456;2024-03-07T01:50:59;17.00;77.80
11214;DHT22;5664;48.606;13.456;2024-03-07T01:53:25;16.90;77.70
11214;DHT22;5664;48.606;13.456;2024-03-07T01:55:52;16.30;77.30
11214;DHT22;5664;48.606;13.456;2024-03-07T01:58:19;16.30;77.30
11214;DHT22;5664;48.606;13.456;2024-03-07T02:00:45;16.10;77.10
11214;DHT22;5664;48.606;13.456;2024-03-07T02:03:11;16.40;77.50
11214;DHT22;5664;48.606;13.456;2024-03-07T02:05:39;16.10;77.20
11214;DHT22;5664;48.606;13.456;2024-03-07T02:08:04;15.90;77.20
11214;DHT22;5664;48.606;13.456;2024-03-07T02:10:30;16.30;77.60
11214;DHT22;5664;48.606;13.456;2024-03-07T02:12:55;16.20;77.50
11214;DHT22;5664;48.606;13.456;2024-03-07T02:15:21;16.30;77.50
11214;DHT22;5664;48.606;13.456;2024-03-07T02:17:46;16.20;76.70
11214;DHT22;5664;48.606;13.456;2024-03-07T02:20:12;16.50;77.70
11214;DHT22;5664;48.606;13.456;2024-03-07T02:22:38;15.80;77.20
11214;DHT22;5664;48.606;13.456;2024-03-07T02:25:04;17.00;78.10
11214;DHT22;5664;48.606;13.456;2024-03-07T02:27:29;16.10;77.30
11214;DHT22;5664;48.606;13.456;2024-03-07T02:29:55;16.00;77.40
11214;DHT22;5664;48.606;13.456;2024-03-07T02:32:20;16.10;77.60
11214;DHT22;5664;48.606;13.456;2024-03-07T02:34:46;16.10;77.50
11214;DHT22;5664;48.606;13.456;2024-03-07T02:37:12;16.30;77.60
11214;DHT22;5664;48.606;13.456;2024-03-07T02:39:38;16.10;77.40
11214;DHT22;5664;48.606;13.456;2024-03-07T02:42:03;16.10;77.60
11214;DHT22;5664;48.606;13.456;2024-03-07T02:44:29;16.10;77.70
11214;DHT22;5664;48.606;13.456;2024-03-07T02:46:55;17.10;78.30
11214;DHT22;5664;48.606;13.456;2024-03-07T02:49:21;17.40;78.60
11214;DHT22;5664;48.606;13.456;2024-03-07T02:51:47;16.00;77.60
11214;DHT22;5664;48.606;13.456;2024-03-07T02:54:12;16.00;77.40
11214;DHT22;5664;48.606;13.456;2024-03-07T02:56:38;16.70;78.00
11214;DHT22;5664;48.606;13.456;2024-03-07T02:59:03;16.00;77.70
11214;DHT22;5664;48.606;13.456;2024-03-07T03:01:29;16.00;77.60
11214;DHT22;5664;48.606;13.456;2024-03-07T03:03:54;15.70;77.30
11214;DHT22;5664;48.606;13.456;2024-03-07T03:06:19;16.00;77.50
11214;DHT22;5664;48.606;13.456;2024-03-07T03:08:48;16.40;77.80
11214;DHT22;5664;48.606;13.456;2024-03-07T03:11:13;15.90;77.60
11214;DHT22;5664;48.606;13.456;2024-03-07T03:13:39;15.70;77.40
11214;DHT22;5664;48.606;13.456;2024-03-07T03:16:05;16.00;77.70
11214;DHT22;5664;48.606;13.456;2024-03-07T03:18:32;15.90;77.60
11214;DHT22;5664;48.606;13.456;2024-03-07T03:20:59;15.90;77.60
11214;DHT22;5664;48.606;13.456;2024-03-07T03:23:25;15.80;77.50
11214;DHT22;5664;48.606;13.456;2024-03-07T03:25:50;16.10;77.80
11214;DHT22;5664;48.606;13.456;2024-03-07T03:28:16;16.00;77.80
11214;DHT22;5664;48.606;13.456;2024-03-07T03:30:44;15.70;77.50
11214;DHT22;5664;48.606;13.456;2024-03-07T03:33:09;15.80;77.60
11214;DHT22;5664;48.606;13.456;2024-03-07T03:35:36;15.60;77.60
11214;DHT22;5664;48.606;13.456;2024-03-07T03:38:01;15.90;77.60
11214;DHT22;5664;48.606;13.456;2024-03-07T03:40:27;15.70;78.00
11214;DHT22;5664;48.606;13.456;2024-03-07T03:42:52;15.70;77.70
11214;DHT22;5664;48.606;13.456;2024-03-07T03:45:18;15.70;77.00
11214;DHT22;5664;48.606;13.456;2024-03-07T03:47:44;15.70;77.90
11214;DHT22;5664;48.606;13.456;2024-03-07T03:50:10;15.70;77.70
11214;DHT22;5664;48.606;13.456;2024-03-07T03:52:36;15.60;77.60
11214;DHT22;5664;48.606;13.456;2024-03-07T03:55:02;15.50;77.60
11214;DHT22;5664;48.606;13.456;2024-03-07T03:57:29;15.60;77.70
11214;DHT22;5664;48.606;13.456;2024-03-07T03:59:55;15.60;76.90
11214;DHT22;5664;48.606;13.456;2024-03-07T04:02:21;15.40;77.50
11214;DHT22;5664;48.606;13.456;2024-03-07T04:04:50;16.00;78.00
11214;DHT22;5664;48.606;13.456;2024-03-07T04:07:17;15.20;77.50
11214;DHT22;5664;48.606;13.456;2024-03-07T04:09:42;15.50;78.00
11214;DHT22;5664;48.606;13.456;2024-03-07T04:12:08;15.60;77.70
11214;DHT22;5664;48.606;13.456;2024-03-07T04:14:37;15.50;77.70
11214;DHT22;5664;48.606;13.456;2024-03-07T04:17:03;15.50;77.80
11214;DHT22;5664;48.606;13.456;2024-03-07T04:19:28;15.50;77.90
11214;DHT22;5664;48.606;13.456;2024-03-07T04:21:58;15.50;77.80
11214;DHT22;5664;48.606;13.456;2024-03-07T04:24:23;15.50;77.90
11214;DHT22;5664;48.606;13.456;2024-03-07T04:26:49;15.70;78.10
11214;DHT22;5664;48.606;13.456;2024-03-07T04:29:14;15.50;78.00
11214;DHT22;5664;48.606;13.456;2024-03-07T04:31:40;15.50;77.80
11214;DHT22;5664;48.606;13.456;2024-03-07T04:34:05;15.40;77.80
11214;DHT22;5664;48.606;13.456;2024-03-07T04:36:31;15.40;77.70
11214;DHT22;5664;48.606;13.456;2024-03-07T04:38:57;16.20;78.30
11214;DHT22;5664;48.606;13.456;2024-03-07T04:41:23;15.70;78.00
11214;DHT22;5664;48.606;13.456;2024-03-07T04:43:48;15.40;77.00
11214;DHT22;5664;48.606;13.456;2024-03-07T04:46:14;15.40;77.80
11214;DHT22;5664;48.606;13.456;2024-03-07T04:48:39;16.10;78.30
11214;DHT22;5664;48.606;13.456;2024-03-07T04:51:05;15.40;77.00
11214;DHT22;5664;48.606;13.456;2024-03-07T04:53:30;14.60;77.50
11214;DHT22;5664;48.606;13.456;2024-03-07T04:55:56;15.50;68.30
11214;DHT22;5664;48.606;13.456;2024-03-07T04:58:21;15.00;57.80
11214;DHT22;5664;48.606;13.456;2024-03-07T05:00:47;14.60;55.50
11214;DHT22;5664;48.606;13.456;2024-03-07T05:03:12;14.30;55.50
11214;DHT22;5664;48.606;13.456;2024-03-07T05:05:38;14.00;56.90
11214;DHT22;5664;48.606;13.456;2024-03-07T05:08:03;13.80;58.70
11214;DHT22;5664;48.606;13.456;2024-03-07T05:10:29;13.80;62.80
11214;DHT22;5664;48.606;13.456;2024-03-07T05:12:56;13.80;65.90
11214;DHT22;5664;48.606;13.456;2024-03-07T05:15:24;14.40;69.10
11214;DHT22;5664;48.606;13.456;2024-03-07T05:17:51;14.10;70.70
11214;DHT22;5664;48.606;13.456;2024-03-07T05:20:17;14.10;71.10
11214;DHT22;5664;48.606;13.456;2024-03-07T05:22:42;14.10;71.40
11214;DHT22;5664;48.606;13.456;2024-03-07T05:25:17;14.30;72.80
11214;DHT22;5664;48.606;13.456;2024-03-07T05:27:44;14.30;72.90
11214;DHT22;5664;48.606;13.456;2024-03-07T05:30:10;14.70;74.10
11214;DHT22;5664;48.606;13.456;2024-03-07T05:32:37;14.40;74.20
11214;DHT22;5664;48.606;13.456;2024-03-07T05:35:02;14.40;74.10
11214;DHT22;5664;48.606;13.456;2024-03-07T05:37:28;14.50;74.40
11214;DHT22;5664;48.606;13.456;2024-03-07T05:39:54;14.50;74.20
11214;DHT22;5664;48.606;13.456;2024-03-07T05:42:19;14.40;74.20
11214;DHT22;5664;48.606;13.456;2024-03-07T05:44:45;14.50;74.10
11214;DHT22;5664;48.606;13.456;2024-03-07T05:47:11;15.40;74.80
11214;DHT22;5664;48.606;13.456;2024-03-07T05:49:38;14.50;73.40
11214;DHT22;5664;48.606;13.456;2024-03-07T05:52:04;14.50;73.40
11214;DHT22;5664;48.606;13.456;2024-03-07T05:54:31;14.50;74.10
11214;DHT22;5664;48.606;13.456;2024-03-07T05:56:57;14.60;74.20
11214;DHT22;5664;48.606;13.456;2024-03-07T05:59:22;16.20;75.30
11214;DHT22;5664;48.606;13.456;2024-03-07T06:01:48;15.20;74.60
11214;DHT22;5664;48.606;13.456;2024-03-07T06:04:13;15.10;74.60
11214;DHT22;5664;48.606;13.456;2024-03-07T06:06:40;14.60;74.40
11214;DHT22;5664;48.606;13.456;2024-03-07T06:09:09;15.50;74.80
11214;DHT22;5664;48.606;13.456;2024-03-07T06:11:35;14.60;74.20
11214;DHT22;5664;48.606;13.456;2024-03-07T06:14:04;14.60;74.30
11214;DHT22;5664;48.606;13.456;2024-03-07T06:16:31;15.50;74.90
11214;DHT22;5664;48.606;13.456;2024-03-07T06:19:00;14.40;74.80
11214;DHT22;5664;48.606;13.456;2024-03-07T06:21:26;15.50;77.10
11214;DHT22;5664;48.606;13.456;2024-03-07T06:23:55;14.90;78.00
11214;DHT22;5664;48.606;13.456;2024-03-07T06:26:25;15.10;78.70
11214;DHT22;5664;48.606;13.456;2024-03-07T06:29:05;15.20;78.90
11214;DHT22;5664;48.606;13.456;2024-03-07T06:31:31;15.30;79.10
11214;DHT22;5664;48.606;13.456;2024-03-07T06:33:56;15.40;79.40
11214;DHT22;5664;48.606;13.456;2024-03-07T06:36:22;15.50;79.80
11214;DHT22;5664;48.606;13.456;2024-03-07T06:38:48;16.30;80.10
11214;DHT22;5664;48.606;13.456;2024-03-07T06:41:14;15.70;79.70
11214;DHT22;5664;48.606;13.456;2024-03-07T06:43:45;15.80;79.10
11214;DHT22;5664;48.606;13.456;2024-03-07T06:46:10;15.90;79.40
11214;DHT22;5664;48.606;13.456;2024-03-07T06:48:38;16.00;80.20
11214;DHT22;5664;48.606;13.456;2024-03-07T06:51:05;16.10;80.30
11214;DHT22;5664;48.606;13.456;2024-03-07T06:53:31;16.30;79.80
11214;DHT22;5664;48.606;13.456;2024-03-07T06:55:56;16.40;80.60
11214;DHT22;5664;48.606;13.456;2024-03-07T06:58:22;16.50;80.00
11214;DHT22;5664;48.606;13.456;2024-03-07T07:00:48;16.50;80.00
11214;DHT22;5664;48.606;13.456;2024-03-07T07:03:17;16.60;80.60
11214;DHT22;5664;48.606;13.456;2024-03-07T07:05:44;16.70;79.90
11214;DHT22;5664;48.606;13.456;2024-03-07T07:08:10;16.80;80.50
11214;DHT22;5664;48.606;13.456;2024-03-07T07:10:36;16.80;80.20
11214;DHT22;5664;48.606;13.456;2024-03-07T07:13:02;17.00;80.10
11214;DHT22;5664;48.606;13.456;2024-03-07T07:15:29;17.00;80.10
11214;DHT22;5664;48.606;13.456;2024-03-07T07:17:55;17.00;79.90
11214;DHT22;5664;48.606;13.456;2024-03-07T07:20:20;17.10;79.90
11214;DHT22;5664;48.606;13.456;2024-03-07T07:22:46;17.00;79.70
11214;DHT22;5664;48.606;13.456;2024-03-07T07:25:15;17.30;80.10
11214;DHT22;5664;48.606;13.456;2024-03-07T07:30:08;17.20;79.90
11214;DHT22;5664;48.606;13.456;2024-03-07T07:32:35;17.30;79.90
11214;DHT22;5664;48.606;13.456;2024-03-07T07:35:01;17.30;79.90
11214;DHT22;5664;48.606;13.456;2024-03-07T07:37:27;17.40;80.10
11214;DHT22;5664;48.606;13.456;2024-03-07T07:39:53;17.40;80.00
11214;DHT22;5664;48.606;13.456;2024-03-07T07:42:18;17.40;80.00
11214;DHT22;5664;48.606;13.456;2024-03-07T07:44:45;17.40;80.00
11214;DHT22;5664;48.606;13.456;2024-03-07T07:47:10;17.50;80.10
11214;DHT22;5664;48.606;13.456;2024-03-07T07:49:37;17.50;80.20
11214;DHT22;5664;48.606;13.456;2024-03-07T07:52:04;17.60;80.20
11214;DHT22;5664;48.606;13.456;2024-03-07T07:54:29;17.60;80.20
11214;DHT22;5664;48.606;13.456;2024-03-07T07:56:55;17.60;80.20
11214;DHT22;5664;48.606;13.456;2024-03-07T07:59:20;17.70;80.50
11214;DHT22;5664;48.606;13.456;2024-03-07T08:01:46;17.70;80.20
11214;DHT22;5664;48.606;13.456;2024-03-07T08:04:11;17.80;80.40
11214;DHT22;5664;48.606;13.456;2024-03-07T08:06:37;17.80;80.20
11214;DHT22;5664;48.606;13.456;2024-03-07T08:09:02;17.80;80.20
11214;DHT22;5664;48.606;13.456;2024-03-07T08:11:28;17.80;80.20
11214;DHT22;5664;48.606;13.456;2024-03-07T08:13:53;17.90;80.20
11214;DHT22;5664;48.606;13.456;2024-03-07T08:16:19;18.00;80.30
11214;DHT22;5664;48.606;13.456;2024-03-07T08:18:45;18.00;80.20
11214;DHT22;5664;48.606;13.456;2024-03-07T08:21:11;18.00;80.10
11214;DHT22;5664;48.606;13.456;2024-03-07T08:23:36;18.00;80.00
11214;DHT22;5664;48.606;13.456;2024-03-07T08:26:02;18.10;80.10
11214;DHT22;5664;48.606;13.456;2024-03-07T08:28:27;18.10;80.10
11214;DHT22;5664;48.606;13.456;2024-03-07T08:30:53;18.20;80.00
11214;DHT22;5664;48.606;13.456;2024-03-07T08:33:20;18.20;79.90
11214;DHT22;5664;48.606;13.456;2024-03-07T08:35:47;18.30;79.20
11214;DHT22;5664;48.606;13.456;2024-03-07T08:38:12;18.30;79.80
11214;DHT22;5664;48.606;13.456;2024-03-07T08:40:38;18.30;79.70
11214;DHT22;5664;48.606;13.456;2024-03-07T08:43:04;18.30;79.60
11214;DHT22;5664;48.606;13.456;2024-03-07T08:45:32;18.40;79.60
11214;DHT22;5664;48.606;13.456;2024-03-07T08:48:00;18.50;79.50
11214;DHT22;5664;48.606;13.456;2024-03-07T08:50:26;18.50;79.40
11214;DHT22;5664;48.606;13.456;2024-03-07T08:52:53;18.60;79.30
11214;DHT22;5664;48.606;13.456;2024-03-07T08:55:20;18.60;79.20
11214;DHT22;5664;48.606;13.456;2024-03-07T08:57:45;18.70;78.20
11214;DHT22;5664;48.606;13.456;2024-03-07T09:00:12;19.40;70.40
11214;DHT22;5664;48.606;13.456;2024-03-07T09:02:50;18.60;73.40
11214;DHT22;5664;48.606;13.456;2024-03-07T09:05:22;18.60;75.90
11214;DHT22;5664;48.606;13.456;2024-03-07T09:07:48;18.70;76.60
11214;DHT22;5664;48.606;13.456;2024-03-07T09:10:14;18.80;76.80
11214;DHT22;5664;48.606;13.456;2024-03-07T09:12:40;18.90;76.70
11214;DHT22;5664;48.606;13.456;2024-03-07T09:15:06;19.00;76.50
11214;DHT22;5664;48.606;13.456;2024-03-07T09:17:31;19.10;76.50
11214;DHT22;5664;48.606;13.456;2024-03-07T09:19:57;19.20;76.30
11214;DHT22;5664;48.606;13.456;2024-03-07T09:22:22;19.40;76.20
11214;DHT22;5664;48.606;13.456;2024-03-07T09:24:48;19.60;76.20
11214;DHT22;5664;48.606;13.456;2024-03-07T09:27:13;19.80;76.90
11214;DHT22;5664;48.606;13.456;2024-03-07T09:29:40;19.90;76.00
11214;DHT22;5664;48.606;13.456;2024-03-07T09:32:06;20.20;74.90
11214;DHT22;5664;48.606;13.456;2024-03-07T09:34:34;20.20;75.60
11214;DHT22;5664;48.606;13.456;2024-03-07T09:37:01;20.50;75.50
11214;DHT22;5664;48.606;13.456;2024-03-07T09:39:26;20.60;75.10
11214;DHT22;5664;48.606;13.456;2024-03-07T09:41:52;20.80;75.00
11214;DHT22;5664;48.606;13.456;2024-03-07T09:44:19;21.00;74.90
11214;DHT22;5664;48.606;13.456;2024-03-07T09:46:49;21.10;73.90
11214;DHT22;5664;48.606;13.456;2024-03-07T09:49:15;21.20;74.10
11214;DHT22;5664;48.606;13.456;2024-03-07T09:51:41;21.30;73.80
11214;DHT22;5664;48.606;13.456;2024-03-07T09:54:08;21.30;73.30
11214;DHT22;5664;48.606;13.456;2024-03-07T09:56:35;21.40;73.30
11214;DHT22;5664;48.606;13.456;2024-03-07T09:59:03;21.40;72.50
11214;DHT22;5664;48.606;13.456;2024-03-07T10:01:29;21.50;73.10
11214;DHT22;5664;48.606;13.456;2024-03-07T10:04:00;21.50;72.30
11214;DHT22;5664;48.606;13.456;2024-03-07T10:06:35;21.40;72.80
11214;DHT22;5664;48.606;13.456;2024-03-07T10:09:01;21.40;72.70
11214;DHT22;5664;48.606;13.456;2024-03-07T10:11:36;21.40;72.70
11214;DHT22;5664;48.606;13.456;2024-03-07T10:14:01;21.30;72.60
11214;DHT22;5664;48.606;13.456;2024-03-07T10:16:30;21.20;72.50
11214;DHT22;5664;48.606;13.456;2024-03-07T10:18:57;21.10;72.40
11214;DHT22;5664;48.606;13.456;2024-03-07T10:21:22;21.10;72.40
11214;DHT22;5664;48.606;13.456;2024-03-07T10:23:49;21.00;72.30
11214;DHT22;5664;48.606;13.456;2024-03-07T10:26:15;21.00;72.30
11214;DHT22;5664;48.606;13.456;2024-03-07T10:28:41;21.00;72.30
11214;DHT22;5664;48.606;13.456;2024-03-07T10:31:06;20.90;72.20
11214;DHT22;5664;48.606;13.456;2024-03-07T10:33:39;20.90;72.20
11214;DHT22;5664;48.606;13.456;2024-03-07T10:36:05;20.90;72.40
11214;DHT22;5664;48.606;13.456;2024-03-07T10:38:37;20.90;72.80
11214;DHT22;5664;48.606;13.456;2024-03-07T10:41:04;20.80;72.90
11214;DHT22;5664;48.606;13.456;2024-03-07T10:43:31;20.90;73.10
11214;DHT22;5664;48.606;13.456;2024-03-07T10:46:00;20.80;73.10
11214;DHT22;5664;48.606;13.456;2024-03-07T10:48:29;20.80;73.00
11214;DHT22;5664;48.606;13.456;2024-03-07T10:51:00;20.80;72.90
11214;DHT22;5664;48.606;13.456;2024-03-07T10:58:37;20.70;72.50
11214;DHT22;5664;48.606;13.456;2024-03-07T11:01:04;20.70;72.40
11214;DHT22;5664;48.606;13.456;2024-03-07T11:03:34;20.70;72.30
11214;DHT22;5664;48.606;13.456;2024-03-07T11:06:00;20.60;72.20
11214;DHT22;5664;48.606;13.456;2024-03-07T11:08:34;20.50;72.00
11214;DHT22;5664;48.606;13.456;2024-03-07T11:11:00;20.50;72.00
11214;DHT22;5664;48.606;13.456;2024-03-07T11:13:25;20.50;71.90
11214;DHT22;5664;48.606;13.456;2024-03-07T11:15:51;20.50;71.90
11214;DHT22;5664;48.606;13.456;2024-03-07T11:18:19;20.50;71.90
11214;DHT22;5664;48.606;13.456;2024-03-07T11:20:44;20.50;72.00
11214;DHT22;5664;48.606;13.456;2024-03-07T11:23:27;20.40;71.90
11214;DHT22;5664;48.606;13.456;2024-03-07T11:26:01;20.40;70.30
11214;DHT22;5664;48.606;13.456;2024-03-07T11:28:29;20.40;71.60
11214;DHT22;5664;48.606;13.456;2024-03-07T11:30:54;20.40;72.30
11214;DHT22;5664;48.606;13.456;2024-03-07T11:33:20;20.40;72.40
11214;DHT22;5664;48.606;13.456;2024-03-07T11:35:49;20.40;72.20
11214;DHT22;5664;48.606;13.456;2024-03-07T11:38:14;20.40;72.10
11214;DHT22;5664;48.606;13.456;2024-03-07T11:43:10;20.40;72.10
11214;DHT22;5664;48.606;13.456;2024-03-07T11:45:36;20.40;72.10
11214;DHT22;5664;48.606;13.456;2024-03-07T11:48:10;20.40;72.10
11214;DHT22;5664;48.606;13.456;2024-03-07T11:50:36;20.30;72.00
11214;DHT22;5664;48.606;13.456;2024-03-07T11:53:02;20.30;72.00
11214;DHT22;5664;48.606;13.456;2024-03-07T11:55:31;20.30;72.10
11214;DHT22;5664;48.606;13.456;2024-03-07T11:58:09;20.30;72.30
11214;DHT22;5664;48.606;13.456;2024-03-07T12:00:34;20.20;72.40
11214;DHT22;5664;48.606;13.456;2024-03-07T12:03:01;20.20;72.50
11214;DHT22;5664;48.606;13.456;2024-03-07T12:05:26;20.20;72.60
11214;DHT22;5664;48.606;13.456;2024-03-07T12:07:52;20.10;72.60
11214;DHT22;5664;48.606;13.456;2024-03-07T12:10:17;20.10;72.70
11214;DHT22;5664;48.606;13.456;2024-03-07T12:12:50;20.10;72.80
11214;DHT22;5664;48.606;13.456;2024-03-07T12:15:15;20.10;73.00
11214;DHT22;5664;48.606;13.456;2024-03-07T12:17:45;20.10;73.00
11214;DHT22;5664;48.606;13.456;2024-03-07T12:20:11;20.10;73.10
11214;DHT22;5664;48.606;13.456;2024-03-07T12:23:02;20.10;73.20
11214;DHT22;5664;48.606;13.456;2024-03-07T12:25:28;20.10;73.20
11214;DHT22;5664;48.606;13.456;2024-03-07T12:28:04;20.10;73.30
11214;DHT22;5664;48.606;13.456;2024-03-07T12:30:54;20.10;73.30
11214;DHT22;5664;48.606;13.456;2024-03-07T12:33:22;20.10;73.40
11214;DHT22;5664;48.606;13.456;2024-03-07T12:35:51;20.00;73.30
11214;DHT22;5664;48.606;13.456;2024-03-07T12:38:18;20.00;73.30
11214;DHT22;5664;48.606;13.456;2024-03-07T12:40:44;20.00;73.30
11214;DHT22;5664;48.606;13.456;2024-03-07T12:43:14;20.00;73.40
11214;DHT22;5664;48.606;13.456;2024-03-07T12:45:47;20.00;73.40
11214;DHT22;5664;48.606;13.456;2024-03-07T12:48:13;20.10;73.80
11214;DHT22;5664;48.606;13.456;2024-03-07T12:50:40;20.00;74.10
11214;DHT22;5664;48.606;13.456;2024-03-07T12:53:06;20.10;74.50
11214;DHT22;5664;48.606;13.456;2024-03-07T12:55:40;20.10;73.70
11214;DHT22;5664;48.606;13.456;2024-03-07T12:58:09;20.10;74.10
11214;DHT22;5664;48.606;13.456;2024-03-07T13:00:35;20.10;73.80
11214;DHT22;5664;48.606;13.456;2024-03-07T13:03:00;20.10;73.90
11214;DHT22;5664;48.606;13.456;2024-03-07T13:05:26;20.10;73.90
11214;DHT22;5664;48.606;13.456;2024-03-07T13:07:52;20.10;72.90
11214;DHT22;5664;48.606;13.456;2024-03-07T13:10:17;20.10;73.60
11214;DHT22;5664;48.606;13.456;2024-03-07T13:12:48;20.00;73.40
11214;DHT22;5664;48.606;13.456;2024-03-07T13:15:17;20.00;73.40
11214;DHT22;5664;48.606;13.456;2024-03-07T13:17:43;20.00;73.50
11214;DHT22;5664;48.606;13.456;2024-03-07T13:20:10;20.00;73.40
11214;DHT22;5664;48.606;13.456;2024-03-07T13:22:42;20.00;73.40
11214;DHT22;5664;48.606;13.456;2024-03-07T13:25:11;20.00;73.30
11214;DHT22;5664;48.606;13.456;2024-03-07T13:27:42;20.00;73.40
11214;DHT22;5664;48.606;13.456;2024-03-07T13:30:09;20.00;73.30
11214;DHT22;5664;48.606;13.456;2024-03-07T13:32:38;20.00;73.20
11214;DHT22;5664;48.606;13.456;2024-03-07T13:35:04;20.00;73.10
11214;DHT22;5664;48.606;13.456;2024-03-07T13:37:29;20.00;73.20
11214;DHT22;5664;48.606;13.456;2024-03-07T13:39:58;20.00;73.00
11214;DHT22;5664;48.606;13.456;2024-03-07T13:42:24;20.10;73.00
11214;DHT22;5664;48.606;13.456;2024-03-07T13:44:49;20.10;73.00
11214;DHT22;5664;48.606;13.456;2024-03-07T13:47:15;20.10;72.90
11214;DHT22;5664;48.606;13.456;2024-03-07T13:49:41;21.10;73.40
11214;DHT22;5664;48.606;13.456;2024-03-07T13:52:07;20.20;72.60
11214;DHT22;5664;48.606;13.456;2024-03-07T13:54:44;20.20;72.50
11214;DHT22;5664;48.606;13.456;2024-03-07T13:57:29;20.20;72.10
11214;DHT22;5664;48.606;13.456;2024-03-07T14:05:24;20.30;72.00
11214;DHT22;5664;48.606;13.456;2024-03-07T14:19:02;20.20;65.90
11214;DHT22;5664;48.606;13.456;2024-03-07T14:21:49;20.10;58.50
11214;DHT22;5664;48.606;13.456;2024-03-07T14:29:54;19.60;54.40
11214;DHT22;5664;48.606;13.456;2024-03-07T14:32:24;19.50;53.70
11214;DHT22;5664;48.606;13.456;2024-03-07T14:35:02;19.30;52.90
11214;DHT22;5664;48.606;13.456;2024-03-07T14:40:16;19.20;54.00
11214;DHT22;5664;48.606;13.456;2024-03-07T14:42:45;19.30;57.50
11214;DHT22;5664;48.606;13.456;2024-03-07T14:45:12;19.30;60.40
11214;DHT22;5664;48.606;13.456;2024-03-07T14:47:39;19.40;62.80
11214;DHT22;5664;48.606;13.456;2024-03-07T14:50:04;19.50;64.30
11214;DHT22;5664;48.606;13.456;2024-03-07T14:52:35;19.50;65.00
11214;DHT22;5664;48.606;13.456;2024-03-07T14:55:01;19.60;64.60
11214;DHT22;5664;48.606;13.456;2024-03-07T14:57:29;19.60;65.40
11214;DHT22;5664;48.606;13.456;2024-03-07T14:59:54;19.60;66.00
11214;DHT22;5664;48.606;13.456;2024-03-07T15:02:20;19.60;66.30
11214;DHT22;5664;48.606;13.456;2024-03-07T15:04:46;19.60;66.50
11214;DHT22;5664;48.606;13.456;2024-03-07T15:07:11;19.70;66.90
11214;DHT22;5664;48.606;13.456;2024-03-07T15:09:37;19.70;67.20
11214;DHT22;5664;48.606;13.456;2024-03-07T15:12:03;19.70;67.60
11214;DHT22;5664;48.606;13.456;2024-03-07T15:14:32;19.70;68.00
11214;DHT22;5664;48.606;13.456;2024-03-07T15:16:57;19.70;68.50
11214;DHT22;5664;48.606;13.456;2024-03-07T15:19:22;19.70;69.00
11214;DHT22;5664;48.606;13.456;2024-03-07T15:21:48;19.70;69.40
11214;DHT22;5664;48.606;13.456;2024-03-07T15:24:18;19.60;69.70
11214;DHT22;5664;48.606;13.456;2024-03-07T15:26:44;19.60;70.20
11214;DHT22;5664;48.606;13.456;2024-03-07T15:29:10;19.60;70.40
11214;DHT22;5664;48.606;13.456;2024-03-07T15:31:35;19.60;70.60
11214;DHT22;5664;48.606;13.456;2024-03-07T15:34:01;19.60;70.80
11214;DHT22;5664;48.606;13.456;2024-03-07T15:36:28;19.60;70.80
11214;DHT22;5664;48.606;13.456;2024-03-07T15:38:54;19.50;70.70
11214;DHT22;5664;48.606;13.456;2024-03-07T15:41:22;19.50;70.80
11214;DHT22;5664;48.606;13.456;2024-03-07T15:43:48;20.70;71.50
11214;DHT22;5664;48.606;13.456;2024-03-07T15:46:13;19.50;70.70
11214;DHT22;5664;48.606;13.456;2024-03-07T15:48:41;19.50;70.80
11214;DHT22;5664;48.606;13.456;2024-03-07T15:51:08;19.50;70.90
11214;DHT22;5664;48.606;13.456;2024-03-07T15:53:37;19.50;70.80
11214;DHT22;5664;48.606;13.456;2024-03-07T15:56:02;19.40;70.60
11214;DHT22;5664;48.606;13.456;2024-03-07T15:58:28;19.40;70.80
11214;DHT22;5664;48.606;13.456;2024-03-07T16:00:54;19.40;70.80
11214;DHT22;5664;48.606;13.456;2024-03-07T16:03:19;19.40;71.10